Terminal Aerodrome Forecast
Issued by NWS Twin Cities, MN

Home | Current Version | Previous Version | Graphics & Text | Print | Product List | Glossary On
Versions: 1 2 3 4 5 6 7 8 9 10 11 12 13 14 15 16 17 18 19 20
325
FTUS43 KMPX 141141
TAFSTC
TAF
KSTC 141141Z 1412/1512 VRB03KT P6SM OVC020
     FM141500 30004KT P6SM -SN OVC015
     FM142000 31009KT P6SM OVC015
     FM150300 29007KT P6SM OVC025=

USA.gov is the U.S. government's official web portal to all federal, state and local government web resources and services.